createdAt,value
2023-04-25T12:33:19.414Z,5.07
2023-04-25T12:34:29.198Z,5.44
2023-04-25T12:34:59.730Z,5.39
2023-04-25T12:35:30.137Z,5.82
2023-04-25T12:36:00.979Z,5.99
2023-04-25T12:36:31.847Z,6.64
2023-04-25T12:37:02.686Z,5.83
2023-04-25T12:37:33.554Z,5.23
2023-04-25T12:38:04.484Z,5.36
2023-04-25T12:38:35.409Z,4.52
2023-04-25T12:39:06.415Z,5.21
2023-04-25T12:39:37.336Z,4.14
2023-04-25T12:40:08.208Z,5.65
2023-04-25T12:40:39.201Z,6.36
2023-04-25T12:42:21.434Z,5.47
2023-04-25T12:42:52.308Z,5.64
2023-04-25T12:43:23.124Z,6.05
2023-04-25T12:43:53.938Z,5.71
2023-04-25T12:44:25.073Z,4.82
2023-04-25T12:44:55.812Z,5.51
2023-04-25T12:46:07.202Z,5.38
2023-04-25T12:46:38.188Z,5.02
2023-04-25T12:47:08.708Z,5.21
2023-04-25T12:47:39.277Z,5.23
2023-04-25T12:48:09.749Z,5.61
2023-04-25T12:48:40.311Z,5.54
2023-04-25T12:49:18.546Z,5.47
2023-04-25T12:49:42.654Z,5.18
2023-04-25T12:50:12.528Z,5.75
2023-04-25T12:50:43.390Z,5.08
2023-04-25T12:51:14.285Z,6.38
2023-04-25T12:51:45.177Z,5.00
2023-04-25T12:52:16.005Z,5.56
2023-04-25T12:52:46.858Z,4.60
2023-04-25T12:53:17.775Z,4.92
2023-04-25T12:53:48.724Z,5.08
2023-04-25T12:54:19.655Z,5.41
2023-04-25T12:54:50.603Z,5.57
2023-04-25T12:55:22.130Z,4.96
2023-04-25T12:55:52.105Z,5.21
2023-04-25T12:56:24.632Z,5.25
2023-04-25T12:56:53.555Z,5.21
2023-04-25T12:57:24.387Z,5.29
2023-04-25T12:57:55.204Z,5.36
2023-04-25T12:58:26.021Z,5.29
2023-04-25T12:58:56.875Z,5.93
2023-04-25T12:59:28.076Z,5.65
2023-04-25T12:59:58.507Z,5.39
2023-04-25T13:00:29.428Z,5.41
2023-04-25T13:01:00.496Z,5.44
2023-04-25T13:01:31.109Z,4.74
2023-04-25T13:02:01.645Z,5.59
2023-04-25T13:02:32.329Z,5.28
2023-04-25T13:03:02.931Z,5.05
2023-04-25T13:03:33.420Z,5.14
2023-04-25T13:04:04.247Z,5.87
2023-04-25T13:04:34.783Z,5.76
2023-04-25T13:05:05.646Z,5.94
2023-04-25T13:05:36.508Z,5.44
2023-04-25T13:06:07.332Z,5.53
2023-04-25T13:06:38.338Z,5.21
2023-04-25T13:07:08.887Z,5.82
2023-04-25T13:07:39.339Z,5.18
2023-04-25T13:08:10.222Z,5.84
2023-04-25T13:08:41.162Z,5.08
2023-04-25T13:09:12.056Z,5.36
2023-04-25T13:09:42.875Z,6.49
2023-04-25T13:10:13.691Z,4.90
2023-04-25T13:10:44.516Z,5.41
2023-04-25T13:11:15.347Z,5.54
2023-04-25T13:11:46.172Z,7.03
2023-04-25T13:12:17.052Z,6.41
2023-04-25T13:12:47.933Z,6.30
2023-04-25T13:13:19.183Z,5.53
2023-04-25T13:13:49.735Z,5.68
2023-04-25T13:14:20.552Z,5.62
2023-04-25T13:14:51.012Z,6.28
2023-04-25T13:15:22.387Z,6.11
2023-04-25T13:15:52.843Z,6.63
2023-04-25T13:16:23.784Z,5.53
2023-04-25T13:16:54.710Z,6.39
2023-04-25T13:17:26.845Z,5.51
2023-04-25T13:17:56.428Z,6.01
2023-04-25T13:18:27.284Z,5.65
2023-04-25T13:18:58.283Z,6.85
2023-04-25T13:19:28.973Z,6.52
2023-04-25T13:19:59.404Z,5.89
2023-04-25T13:20:30.349Z,5.39
2023-04-25T13:21:01.230Z,5.93
2023-04-25T13:21:32.167Z,6.30
2023-04-25T13:22:03.088Z,5.86
2023-04-25T13:22:33.960Z,6.17
2023-04-25T13:23:04.853Z,6.59
2023-04-25T13:23:35.698Z,7.15
2023-04-25T13:24:06.578Z,6.44
2023-04-25T13:24:37.434Z,6.11
2023-04-25T13:25:08.249Z,6.99
2023-04-25T13:25:39.213Z,6.79
2023-04-25T13:26:10.304Z,6.72
2023-04-25T13:26:40.806Z,6.97
2023-04-25T13:27:11.469Z,6.39
2023-04-25T13:27:41.934Z,6.66
2023-04-25T13:28:13.071Z,6.93
2023-04-25T13:28:44.979Z,6.57
2023-04-25T13:29:14.182Z,6.54
2023-04-25T13:29:45.042Z,7.28
2023-04-25T13:30:15.890Z,7.14
2023-04-25T13:30:46.744Z,6.26
2023-04-25T13:31:17.707Z,7.29
2023-04-25T13:31:48.585Z,6.85
2023-04-25T13:32:19.573Z,6.31
2023-04-25T13:32:50.512Z,6.60
2023-04-25T13:33:21.056Z,6.75
2023-04-25T13:33:52.530Z,7.58
2023-04-25T13:34:22.854Z,6.52
2023-04-25T13:34:53.783Z,6.63
2023-04-25T13:35:24.600Z,7.13
2023-04-25T13:35:55.416Z,7.39
2023-04-25T13:36:26.281Z,6.82
2023-04-25T13:36:57.157Z,6.31
2023-04-25T13:37:27.996Z,6.42
2023-04-25T13:37:58.823Z,6.75
2023-04-25T13:38:29.784Z,6.88
2023-04-25T13:39:00.934Z,6.46
2023-04-25T13:39:31.327Z,6.01
2023-04-25T13:40:02.038Z,7.18
2023-04-25T13:40:32.507Z,7.82
2023-04-25T13:41:03.620Z,5.90
2023-04-25T13:41:34.081Z,6.56
2023-04-25T13:42:04.903Z,6.66
2023-04-25T13:42:35.712Z,6.35
2023-04-25T13:43:06.565Z,6.75
2023-04-25T13:43:37.403Z,7.17
2023-04-25T13:44:08.363Z,7.35
2023-04-25T13:44:39.334Z,7.10
2023-04-25T13:45:10.220Z,6.97
2023-04-25T13:45:41.227Z,6.39
2023-04-25T13:46:30.185Z,7.77
2023-04-25T13:46:47.014Z,6.96
2023-04-25T13:47:14.103Z,6.77
2023-04-25T13:47:44.475Z,6.84
2023-04-25T13:48:14.855Z,7.20
2023-04-25T13:48:45.681Z,6.69
2023-04-25T13:49:16.649Z,6.89
2023-04-25T13:49:47.166Z,6.72
2023-04-25T13:50:18.080Z,6.39
2023-04-25T13:50:48.938Z,7.15
2023-04-25T13:51:19.857Z,6.51
2023-04-25T13:51:50.824Z,7.00
2023-04-25T13:52:21.696Z,6.27
2023-04-25T13:52:52.660Z,6.35
2023-04-25T13:53:23.549Z,7.24
2023-04-25T13:53:54.501Z,5.65
2023-04-25T13:54:25.370Z,6.81
2023-04-25T13:54:56.199Z,5.93
2023-04-25T13:55:27.013Z,6.19
2023-04-25T13:55:57.855Z,6.56
2023-04-25T13:56:28.676Z,6.41
2023-04-25T13:56:59.491Z,5.94
2023-04-25T13:57:30.432Z,6.64
2023-04-25T13:58:01.315Z,6.78
2023-04-25T13:58:32.291Z,6.38
2023-04-25T13:59:03.176Z,6.66
2023-04-25T13:59:34.145Z,6.60
2023-04-25T14:00:05.050Z,5.75
2023-04-25T14:00:35.926Z,6.54
2023-04-25T14:01:06.777Z,6.75
2023-04-25T14:01:37.785Z,5.75
2023-04-25T14:02:08.201Z,6.60
2023-04-25T14:02:39.144Z,5.47
2023-04-25T14:03:09.704Z,7.03
2023-04-25T14:03:40.427Z,6.12
2023-04-25T14:04:10.887Z,6.51
2023-04-25T14:04:41.916Z,6.11
2023-04-25T14:05:12.506Z,5.36
2023-04-25T14:05:43.272Z,6.45
2023-04-25T14:06:13.795Z,6.62
2023-04-25T14:06:44.228Z,6.75
2023-04-25T14:07:15.103Z,6.09
2023-04-25T14:07:45.933Z,6.59
2023-04-25T14:08:16.782Z,6.11
2023-04-25T14:08:47.610Z,5.72
2023-04-25T14:09:18.421Z,6.64
2023-04-25T14:09:49.262Z,6.93
2023-04-25T14:10:20.143Z,6.79
2023-04-25T14:10:51.029Z,6.02
2023-04-25T14:11:21.912Z,6.36
2023-04-25T14:11:52.874Z,5.69
2023-04-25T14:12:23.755Z,5.65
2023-04-25T14:12:54.706Z,5.94
2023-04-25T14:13:25.534Z,5.86
2023-04-25T14:13:56.355Z,5.59
2023-04-25T14:14:27.184Z,5.35
2023-04-25T14:14:58.043Z,6.51
2023-04-25T14:15:28.927Z,6.62
2023-04-25T14:15:59.835Z,6.14
2023-04-25T14:16:31.082Z,6.59
2023-04-25T14:17:04.293Z,5.66
2023-04-25T14:17:36.386Z,5.86
2023-04-25T14:18:03.437Z,6.54
2023-04-25T14:18:33.866Z,6.46
2023-04-25T14:19:04.716Z,6.17
2023-04-25T14:19:35.580Z,6.41
2023-04-25T14:20:06.394Z,5.79
2023-04-25T14:20:37.228Z,6.24
2023-04-25T14:21:08.126Z,6.70
2023-04-25T14:21:39.005Z,6.78
2023-04-25T14:22:09.876Z,6.30
2023-04-25T14:22:40.707Z,5.99
2023-04-25T14:23:11.831Z,6.45
2023-04-25T14:23:42.304Z,7.33
2023-04-25T14:24:13.440Z,6.46
2023-04-25T14:24:43.905Z,6.07
2023-04-25T14:25:15.046Z,6.26
2023-04-25T14:25:45.507Z,6.59
2023-04-25T14:26:16.331Z,6.12
2023-04-25T14:26:47.179Z,6.75
2023-04-25T14:27:18.043Z,6.17
2023-04-25T14:27:48.859Z,6.78
2023-04-25T14:28:19.727Z,6.49
2023-04-25T14:28:50.582Z,6.02
2023-04-25T14:29:21.673Z,6.51
2023-04-25T14:29:52.168Z,6.33
2023-04-25T14:30:23.346Z,7.18
2023-04-25T14:30:53.878Z,5.51
2023-04-25T14:31:25.175Z,6.41
2023-04-25T14:31:55.924Z,6.51
2023-04-25T14:32:26.665Z,5.97
2023-04-25T14:32:57.587Z,6.74
2023-04-25T14:33:28.451Z,6.75
2023-04-25T14:33:59.848Z,6.20
2023-04-25T14:34:29.847Z,6.92
2023-04-25T14:35:00.705Z,7.10
2023-04-25T14:35:32.076Z,6.41
2023-04-25T14:36:02.550Z,6.60
2023-04-25T14:36:33.700Z,6.27
2023-04-25T14:37:04.218Z,6.28
2023-04-25T14:37:34.806Z,6.84
2023-04-25T14:38:05.269Z,7.18
2023-04-25T14:38:36.345Z,6.82
2023-04-25T14:39:06.790Z,7.85
2023-04-25T14:39:37.620Z,6.99
2023-04-25T14:40:08.468Z,7.45
2023-04-25T14:40:39.294Z,6.84
2023-04-25T14:41:10.119Z,7.40
2023-04-25T14:41:40.985Z,6.51
2023-04-25T14:42:11.799Z,6.46
2023-04-25T14:42:42.757Z,7.03
2023-04-25T14:43:13.640Z,6.95
2023-04-25T14:43:44.564Z,6.44
2023-04-25T14:44:15.544Z,7.05
2023-04-25T14:44:46.544Z,6.57
2023-04-25T14:45:16.946Z,7.33
2023-04-25T14:45:47.765Z,6.19
2023-04-25T14:46:18.666Z,6.97
2023-04-25T14:46:49.574Z,6.77
2023-04-25T14:47:20.464Z,7.50
2023-04-25T14:47:51.408Z,7.24
2023-04-25T14:48:21.864Z,7.57
2023-04-25T14:48:52.867Z,6.60
2023-04-25T14:49:23.355Z,6.63
2023-04-25T14:49:54.370Z,7.14
2023-04-25T14:50:24.866Z,6.22
2023-04-25T14:50:55.868Z,6.67
2023-04-25T14:51:26.763Z,7.25
2023-04-25T14:51:57.648Z,6.87
2023-04-25T14:52:28.466Z,7.40
2023-04-25T14:52:59.310Z,7.47
2023-04-25T14:53:30.170Z,7.43
2023-04-25T14:54:01.017Z,7.43
2023-04-25T14:54:31.862Z,6.95
2023-04-25T14:55:02.868Z,7.13
2023-04-25T14:55:33.334Z,6.99
2023-04-25T14:56:04.297Z,7.13
2023-04-25T14:56:34.817Z,6.42
2023-04-25T14:57:05.667Z,6.92
2023-04-25T14:57:37.324Z,7.70
2023-04-25T14:58:07.336Z,7.17
2023-04-25T14:58:38.179Z,7.38
2023-04-25T14:59:09.012Z,6.59
2023-04-25T14:59:39.831Z,6.46
2023-04-25T15:00:10.414Z,7.36
2023-04-25T15:00:41.307Z,7.35
2023-04-25T15:01:12.247Z,6.70
2023-04-25T15:01:43.359Z,6.85
2023-04-25T15:02:13.807Z,6.38
2023-04-25T15:02:44.578Z,7.32
2023-04-25T15:03:15.293Z,6.04
2023-04-25T15:03:46.084Z,7.28
2023-04-25T15:04:16.808Z,7.13
2023-04-25T15:04:47.810Z,6.92
2023-04-25T15:05:18.251Z,7.20
2023-04-25T15:05:49.056Z,6.84
2023-04-25T15:06:19.920Z,7.03
2023-04-25T15:06:50.753Z,6.87
2023-04-25T15:07:21.600Z,6.16
2023-04-25T15:07:52.466Z,6.56
2023-04-25T15:08:23.423Z,7.42
2023-04-25T15:08:54.385Z,7.45
2023-04-25T15:09:25.348Z,7.14
2023-04-25T15:09:56.269Z,7.56
2023-04-25T15:10:27.226Z,7.42
2023-04-25T15:10:58.129Z,6.96
2023-04-25T15:11:28.947Z,7.73
2023-04-25T15:11:59.782Z,7.23
2023-04-25T15:12:30.633Z,7.82
2023-04-25T15:13:01.501Z,7.53
2023-04-25T15:13:32.382Z,7.76
2023-04-25T15:14:03.253Z,6.84
2023-04-25T15:14:34.222Z,7.76
2023-04-25T15:15:05.191Z,7.53
2023-04-25T15:15:36.103Z,7.47
2023-04-25T15:16:07.145Z,6.77
2023-04-25T15:16:37.672Z,7.42
2023-04-25T15:17:08.632Z,7.69
2023-04-25T15:17:38.979Z,7.54
2023-04-25T15:18:09.826Z,7.02
2023-04-25T15:18:40.684Z,8.03
2023-04-25T15:19:11.535Z,7.75
2023-04-25T15:19:42.384Z,7.63
2023-04-25T15:20:13.190Z,6.92
2023-04-25T15:20:44.163Z,7.61
2023-04-25T15:21:15.127Z,7.38
2023-04-25T15:21:45.630Z,7.38
2023-04-25T15:22:16.807Z,6.89
2023-04-25T15:22:47.290Z,6.82
2023-04-25T15:23:18.486Z,7.45
2023-04-25T15:23:49.122Z,7.94
2023-04-25T15:24:19.743Z,6.77
2023-04-25T15:24:50.588Z,7.28
2023-04-25T15:25:21.406Z,6.45
2023-04-25T15:25:52.285Z,6.60
2023-04-25T15:26:23.186Z,6.62
2023-04-25T15:26:54.006Z,6.79
2023-04-25T15:27:24.934Z,7.02
2023-04-25T15:27:55.904Z,6.74
2023-04-25T15:28:26.379Z,7.06
2023-04-25T15:28:57.350Z,7.14
2023-04-25T15:29:28.257Z,7.18
2023-04-25T15:29:59.222Z,7.18
2023-04-25T15:30:30.061Z,7.13
2023-04-25T15:31:00.904Z,7.88
2023-04-25T15:31:31.759Z,7.66
2023-04-25T15:32:02.648Z,6.95
2023-04-25T15:32:33.545Z,7.45
2023-04-25T15:33:04.437Z,6.93
2023-04-25T15:33:35.390Z,7.06
2023-04-25T15:34:06.353Z,7.60
2023-04-25T15:34:37.335Z,7.40
2023-04-25T15:35:08.523Z,7.39
2023-04-25T15:35:38.544Z,7.95
2023-04-25T15:36:09.696Z,6.75
2023-04-25T15:36:39.691Z,7.28
2023-04-25T15:37:10.513Z,7.58
2023-04-25T15:37:41.318Z,7.25
2023-04-25T15:38:12.225Z,7.23
2023-04-25T15:38:43.053Z,7.83
2023-04-25T15:39:13.916Z,7.18
2023-04-25T15:39:44.724Z,6.82
2023-04-25T15:40:15.918Z,7.20
2023-04-25T15:40:46.371Z,7.51
2023-04-25T15:41:17.516Z,7.51
2023-04-25T15:41:48.008Z,7.00
2023-04-25T15:42:19.157Z,7.50
2023-04-25T15:42:49.637Z,7.87
2023-04-25T15:43:20.505Z,7.40
2023-04-25T15:43:51.507Z,8.06
2023-04-25T15:44:21.977Z,6.75
2023-04-25T15:44:52.814Z,7.77
2023-04-25T15:45:23.623Z,7.32
2023-04-25T15:45:54.639Z,7.15
2023-04-25T15:46:25.832Z,7.31
2023-04-25T15:46:56.385Z,7.47
2023-04-25T15:47:26.851Z,7.70
2023-04-25T15:47:57.838Z,7.50
2023-04-25T15:48:28.337Z,8.03
2023-04-25T15:48:59.344Z,7.50
2023-04-25T15:49:30.274Z,7.57
2023-04-25T15:50:01.105Z,8.55
2023-04-25T15:50:31.945Z,6.96
2023-04-25T15:51:02.787Z,8.06
2023-04-25T15:51:33.705Z,8.24
2023-04-25T15:52:04.586Z,8.18
2023-04-25T15:52:35.454Z,8.49
2023-04-25T15:53:07.253Z,8.73
2023-04-25T15:53:37.301Z,7.72
2023-04-25T15:54:07.723Z,8.71
2023-04-25T15:54:38.610Z,8.51
2023-04-25T15:55:09.546Z,9.18
2023-04-25T15:55:40.531Z,8.38
2023-04-25T15:56:11.349Z,8.78
2023-04-25T15:56:42.172Z,8.06
2023-04-25T15:57:13.048Z,8.09
2023-04-25T15:57:43.902Z,8.45
2023-04-25T15:58:14.699Z,8.30
2023-04-25T15:58:45.541Z,8.31
2023-04-25T15:59:16.387Z,8.89
2023-04-25T15:59:47.284Z,8.94
2023-04-25T16:00:18.379Z,7.87
2023-04-25T16:00:48.830Z,8.38
2023-04-25T16:01:20.050Z,7.58
2023-04-25T16:01:50.568Z,6.93
2023-04-25T16:02:21.199Z,7.87
2023-04-25T16:02:51.761Z,8.19
2023-04-25T16:03:22.497Z,8.16
2023-04-25T16:03:53.348Z,7.87
2023-04-25T16:04:23.843Z,8.76
2023-04-25T16:04:54.431Z,7.90
2023-04-25T16:05:25.310Z,7.29
2023-04-25T16:05:56.147Z,7.75
2023-04-25T16:06:27.022Z,7.67
2023-04-25T16:06:57.916Z,7.95
2023-04-25T16:07:28.803Z,8.09
2023-04-25T16:07:59.693Z,7.95
2023-04-25T16:08:31.180Z,8.64
2023-04-25T16:09:01.539Z,8.67
2023-04-25T16:09:34.095Z,8.24
2023-04-25T16:10:02.999Z,8.20
2023-04-25T16:10:33.860Z,8.13
2023-04-25T16:11:04.759Z,8.46
2023-04-25T16:11:35.569Z,7.77
2023-04-25T16:12:06.384Z,8.31
2023-04-25T16:12:37.292Z,8.82
2023-04-25T16:13:08.454Z,8.67
2023-04-25T16:13:38.905Z,8.60
2023-04-25T16:14:10.043Z,9.29
2023-04-25T16:14:40.530Z,8.66
2023-04-25T16:15:11.655Z,8.18
2023-04-25T16:15:42.026Z,8.06
2023-04-25T16:16:12.993Z,8.19
2023-04-25T16:16:43.846Z,8.27
2023-04-25T16:17:14.682Z,7.82
2023-04-25T16:17:45.552Z,8.92
2023-04-25T16:18:16.455Z,7.51
2023-04-25T16:18:47.520Z,8.01
2023-04-25T16:19:17.996Z,8.27
2023-04-25T16:19:48.486Z,7.95
2023-04-25T16:20:19.446Z,7.85
2023-04-25T16:20:50.420Z,6.77
2023-04-25T16:21:21.263Z,8.06
2023-04-25T16:21:52.083Z,7.82
2023-04-25T16:22:22.923Z,8.71
2023-04-25T16:22:53.738Z,7.80
2023-04-25T16:23:24.960Z,8.48
2023-04-25T16:23:55.321Z,7.87
2023-04-25T16:24:26.178Z,7.85
2023-04-25T16:24:57.202Z,8.46
2023-04-25T16:25:28.178Z,6.99
2023-04-25T16:25:59.144Z,6.27
2023-04-25T16:26:30.121Z,7.56
2023-04-25T16:27:01.039Z,6.93
2023-04-25T16:27:33.839Z,6.81
2023-04-25T16:28:02.689Z,7.17
2023-04-25T16:28:33.517Z,7.10
2023-04-25T16:29:04.371Z,7.63
2023-04-25T16:29:35.200Z,6.95
2023-04-25T16:30:06.016Z,6.89
2023-04-25T16:30:36.857Z,7.43
2023-04-25T16:31:07.859Z,7.02
2023-04-25T16:31:38.336Z,6.79
2023-04-25T16:32:09.262Z,6.77
2023-04-25T16:32:40.612Z,6.46
2023-04-25T16:33:10.820Z,6.74
2023-04-25T16:33:41.789Z,6.72
2023-04-25T16:34:12.627Z,6.16
2023-04-25T16:34:43.445Z,5.73
2023-04-25T16:35:14.277Z,5.97
2023-04-25T16:35:45.132Z,6.17
2023-04-25T16:36:15.960Z,6.02
2023-04-25T16:36:46.825Z,6.42
2023-04-25T16:37:17.711Z,5.84
2023-04-25T16:37:48.596Z,6.33
2023-04-25T16:38:19.493Z,5.61
2023-04-25T16:38:50.799Z,5.84
2023-04-25T16:39:21.471Z,5.64
2023-04-25T16:39:52.543Z,6.17
2023-04-25T16:40:22.911Z,6.39
2023-04-25T16:40:53.723Z,5.15
2023-04-25T16:41:24.566Z,5.56
2023-04-25T16:41:55.396Z,5.47
2023-04-25T16:42:26.277Z,5.99
2023-04-25T16:42:57.101Z,5.53
2023-04-25T16:43:28.252Z,5.35
2023-04-25T16:43:58.753Z,6.14
2023-04-25T16:44:29.874Z,4.97
2023-04-25T16:45:00.300Z,6.48
2023-04-25T16:45:31.463Z,4.82
2023-04-25T16:46:01.919Z,5.65
2023-04-25T16:46:33.317Z,5.59
2023-04-25T16:47:03.786Z,5.65
2023-04-25T16:47:34.234Z,5.43
2023-04-25T16:48:05.184Z,5.33
2023-04-25T16:48:36.019Z,5.41
2023-04-25T16:49:06.879Z,5.20
2023-04-25T16:49:37.723Z,5.50
2023-04-25T16:50:08.691Z,5.20
2023-04-25T16:50:39.623Z,5.71
2023-04-25T16:51:10.507Z,5.17
2023-04-25T16:51:41.450Z,4.55
2023-04-25T16:52:12.312Z,4.94
2023-04-25T16:52:44.675Z,5.68
2023-04-25T16:53:14.073Z,6.28
2023-04-25T16:53:44.881Z,5.26
2023-04-25T16:54:15.721Z,5.64
2023-04-25T16:54:46.534Z,5.30
2023-04-25T16:55:17.373Z,5.72
2023-04-25T16:55:48.331Z,5.07
2023-04-25T16:56:19.308Z,5.39
2023-04-25T16:56:50.197Z,6.42
2023-04-25T16:57:21.099Z,5.76
2023-04-25T16:57:52.176Z,5.61
2023-04-25T16:58:22.670Z,5.66
2023-04-25T16:58:53.744Z,5.30
2023-04-25T16:59:24.298Z,5.84
2023-04-25T16:59:55.124Z,6.45
2023-04-25T17:00:26.002Z,5.71
2023-04-25T17:00:56.890Z,5.89
2023-04-25T17:01:27.798Z,5.71
2023-04-25T17:01:58.879Z,6.49
2023-04-25T17:02:29.470Z,6.78
2023-04-25T17:03:00.241Z,5.43
2023-04-25T17:03:33.126Z,6.33
2023-04-25T17:04:01.925Z,6.41
2023-04-25T17:04:33.373Z,6.42
2023-04-25T17:05:03.448Z,5.69
2023-04-25T17:05:34.285Z,6.11
2023-04-25T17:06:05.141Z,5.87
2023-04-25T17:06:36.013Z,5.48
2023-04-25T17:07:06.859Z,5.91
2023-04-25T17:07:37.793Z,5.53
2023-04-25T17:08:08.621Z,6.27
2023-04-25T17:08:39.703Z,6.19
2023-04-25T17:09:10.165Z,5.99
2023-04-25T17:09:41.231Z,6.64
2023-04-25T17:10:11.717Z,6.57
2023-04-25T17:10:42.867Z,6.44
2023-04-25T17:11:13.699Z,6.24
2023-04-25T17:11:44.233Z,6.17
2023-04-25T17:12:14.572Z,6.14
2023-04-25T17:12:45.401Z,6.96
2023-04-25T17:13:16.271Z,6.26
2023-04-25T17:13:47.109Z,6.59
2023-04-25T17:14:17.935Z,6.48
2023-04-25T17:14:48.752Z,6.92
2023-04-25T17:15:19.628Z,5.46
2023-04-25T17:15:50.518Z,5.21
2023-04-25T17:16:21.429Z,6.72
2023-04-25T17:16:52.405Z,6.20
2023-04-25T17:17:23.380Z,6.38
2023-04-25T17:17:54.378Z,5.97
2023-04-25T17:18:25.837Z,5.50
2023-04-25T17:18:56.177Z,5.98
2023-04-25T17:19:26.561Z,6.07
2023-04-25T17:19:57.408Z,7.17
2023-04-25T17:20:28.240Z,7.20
2023-04-25T17:20:59.107Z,7.32
2023-04-25T17:21:30.052Z,6.07
2023-04-25T17:22:01.012Z,5.57
2023-04-25T17:22:31.911Z,6.45
2023-04-25T17:23:02.935Z,6.24
2023-04-25T17:23:33.969Z,6.39
2023-04-25T17:24:04.438Z,6.93
2023-04-25T17:24:35.276Z,5.91
2023-04-25T17:25:06.144Z,6.02
2023-04-25T17:25:37.006Z,6.41
2023-04-25T17:26:07.899Z,6.92
2023-04-25T17:26:38.773Z,6.11
2023-04-25T17:27:09.630Z,6.66
2023-04-25T17:27:40.568Z,6.27
2023-04-25T17:28:11.459Z,6.11
2023-04-25T17:28:42.360Z,5.90
2023-04-25T17:29:13.243Z,6.79
2023-04-25T17:29:44.659Z,5.84
2023-04-25T17:30:15.009Z,6.24
2023-04-25T17:30:45.914Z,5.90
2023-04-25T17:31:16.797Z,5.86
2023-04-25T17:31:47.680Z,6.14
2023-04-25T17:32:18.525Z,5.93
2023-04-25T17:32:49.410Z,5.69
2023-04-25T17:33:20.405Z,6.56
2023-04-25T17:33:51.394Z,5.82
2023-04-25T17:34:22.287Z,6.39
2023-04-25T17:34:53.167Z,6.72
2023-04-25T17:35:24.055Z,6.09
2023-04-25T17:35:54.979Z,6.04
2023-04-25T17:36:25.797Z,6.33
2023-04-25T17:36:56.647Z,6.67
2023-04-25T17:37:27.478Z,6.19
2023-04-25T17:37:58.297Z,6.59
2023-04-25T17:38:29.198Z,7.02
2023-04-25T17:39:00.021Z,6.70
2023-04-25T17:39:30.920Z,6.51
2023-04-25T17:40:01.994Z,6.22
2023-04-25T17:40:32.459Z,6.17
2023-04-25T17:41:03.574Z,5.51
2023-04-25T17:41:34.051Z,6.93
2023-04-25T17:42:05.141Z,6.75
2023-04-25T17:42:35.596Z,6.46
2023-04-25T17:43:06.428Z,6.87
2023-04-25T17:43:37.268Z,6.33
2023-04-25T17:44:08.143Z,6.33
2023-04-25T17:44:38.988Z,5.76
2023-04-25T17:45:09.915Z,5.80
2023-04-25T17:45:41.071Z,5.86
2023-04-25T17:46:11.757Z,6.19
2023-04-25T17:46:42.356Z,6.59
2023-04-25T17:47:13.153Z,5.89
2023-04-25T17:47:43.626Z,6.59
2023-04-25T17:48:14.297Z,6.12
2023-04-25T17:48:44.781Z,6.02
2023-04-25T17:49:15.917Z,6.01
2023-04-25T17:49:46.273Z,5.87
2023-04-25T17:50:17.134Z,6.02
2023-04-25T17:50:48.004Z,5.93
2023-04-25T17:51:18.847Z,6.36
2023-04-25T17:51:49.677Z,6.42
2023-04-25T17:52:20.488Z,6.39
2023-04-25T17:52:51.331Z,6.51
2023-04-25T17:53:22.209Z,6.42
2023-04-25T17:53:53.188Z,5.90
2023-04-25T17:54:24.102Z,6.09
2023-04-25T17:54:55.048Z,6.44
2023-04-25T17:55:26.017Z,5.99
2023-04-25T17:55:56.846Z,6.07
2023-04-25T17:56:27.980Z,6.48
2023-04-25T17:56:58.422Z,5.48
2023-04-25T17:57:29.266Z,6.24
2023-04-25T17:58:00.150Z,6.01
2023-04-25T17:58:31.002Z,5.98
2023-04-25T17:59:01.873Z,6.64
2023-04-25T17:59:32.833Z,6.05
2023-04-25T18:00:05.801Z,5.35
2023-04-25T18:00:34.588Z,5.56
2023-04-25T18:01:06.511Z,6.42
2023-04-25T18:01:36.497Z,5.53
2023-04-25T18:02:06.946Z,6.07
2023-04-25T18:02:37.910Z,5.83
2023-04-25T18:03:08.394Z,6.42
2023-04-25T18:03:38.919Z,5.86
2023-04-25T18:04:09.357Z,5.93
2023-04-25T18:04:40.314Z,6.26
2023-04-25T18:05:11.289Z,5.76
2023-04-25T18:05:42.261Z,5.66
2023-04-25T18:06:13.449Z,6.07
2023-04-25T18:06:43.918Z,6.42
2023-04-25T18:07:15.057Z,5.47
2023-04-25T18:07:45.522Z,5.79
2023-04-25T18:08:16.894Z,6.51
2023-04-25T18:08:47.293Z,4.97
2023-04-25T18:09:18.181Z,6.39
2023-04-25T18:09:49.064Z,5.93
2023-04-25T18:10:19.890Z,5.83
2023-04-25T18:10:50.766Z,6.02
2023-04-25T18:11:21.578Z,6.16
2023-04-25T18:11:52.527Z,5.61
2023-04-25T18:12:23.551Z,5.57
2023-04-25T18:12:53.993Z,6.31
2023-04-25T18:13:24.864Z,6.02
2023-04-25T18:13:55.833Z,6.09
2023-04-25T18:14:27.539Z,6.41
2023-04-25T18:14:57.383Z,5.66
2023-04-25T18:15:28.193Z,5.89
2023-04-25T18:15:59.112Z,6.22
2023-04-25T18:16:30.006Z,6.31
2023-04-25T18:17:00.898Z,5.99
2023-04-25T18:17:31.761Z,5.84
2023-04-25T18:18:02.737Z,5.87
2023-04-25T18:18:33.768Z,6.12
2023-04-25T18:19:04.656Z,5.87
2023-04-25T18:19:35.557Z,5.17
2023-04-25T18:20:06.521Z,5.29
2023-04-25T18:20:37.438Z,5.91
2023-04-25T18:21:08.268Z,6.01
2023-04-25T18:21:39.096Z,6.28
2023-04-25T18:22:09.903Z,6.01
2023-04-25T18:22:40.773Z,6.16
2023-04-25T18:23:11.582Z,5.61
2023-04-25T18:23:42.448Z,5.71
2023-04-25T18:24:13.692Z,5.93
2023-04-25T18:24:43.940Z,6.09
2023-04-25T18:25:15.037Z,5.23
2023-04-25T18:25:45.531Z,5.51
2023-04-25T18:26:16.588Z,5.10
2023-04-25T18:26:47.038Z,5.72
2023-04-25T18:27:18.144Z,6.20
2023-04-25T18:27:48.495Z,6.52
2023-04-25T18:28:19.358Z,6.45
2023-04-25T18:28:50.417Z,6.19
2023-04-25T18:29:32.222Z,5.83
2023-04-25T18:29:51.708Z,6.11
2023-04-25T18:30:22.582Z,5.94
2023-04-25T18:30:53.560Z,6.01
2023-04-25T18:31:24.671Z,5.72
2023-04-25T18:31:55.180Z,5.26
2023-04-25T18:32:26.318Z,6.77
2023-04-25T18:32:56.875Z,5.84
2023-04-25T18:33:28.379Z,5.69
2023-04-25T18:33:58.225Z,6.38
2023-04-25T18:34:29.113Z,6.19
2023-04-25T18:34:59.982Z,4.97
2023-04-25T18:35:30.890Z,5.82
2023-04-25T18:36:01.799Z,6.19
2023-04-25T18:36:32.727Z,6.38
2023-04-25T18:37:03.677Z,5.12
2023-04-25T18:37:34.816Z,5.61
2023-04-25T18:38:05.315Z,5.59
2023-04-25T18:38:36.477Z,5.64
2023-04-25T18:39:21.499Z,5.80
2023-04-25T18:39:38.975Z,6.07
2023-04-25T18:40:08.411Z,5.57
2023-04-25T18:40:50.361Z,6.70
2023-04-25T18:41:27.467Z,5.82
2023-04-25T18:41:52.168Z,5.65
2023-04-25T18:42:12.778Z,5.73
2023-04-25T18:42:42.687Z,5.56
2023-04-25T18:43:13.887Z,5.25
2023-04-25T18:43:44.365Z,6.27
2023-04-25T18:44:14.825Z,6.20
2023-04-25T18:44:46.034Z,5.68
2023-04-25T18:45:16.548Z,5.82
2023-04-25T18:45:47.083Z,5.23
2023-04-25T18:46:17.691Z,5.82
2023-04-25T18:46:48.382Z,5.28
2023-04-25T18:47:19.276Z,5.29
2023-04-25T18:47:50.174Z,5.41
2023-04-25T18:48:21.145Z,5.41
2023-04-25T18:48:52.455Z,6.19
2023-04-25T18:49:22.593Z,5.64
2023-04-25T18:49:53.508Z,5.98
2023-04-25T18:50:24.648Z,5.51
2023-04-25T18:50:55.158Z,6.09
2023-04-25T18:51:26.332Z,5.75
2023-04-25T18:51:57.120Z,6.12
2023-04-25T18:52:27.824Z,5.93
2023-04-25T18:52:58.363Z,5.90
2023-04-25T18:53:29.066Z,5.91
2023-04-25T18:53:59.472Z,5.33
2023-04-25T18:54:30.373Z,5.46
2023-04-25T18:55:01.247Z,5.72
2023-04-25T18:55:32.162Z,5.36
2023-04-25T18:56:03.113Z,5.83
2023-04-25T18:56:34.071Z,6.17
2023-04-25T18:57:05.102Z,6.11
2023-04-25T18:57:35.626Z,4.94
2023-04-25T18:58:06.137Z,4.75
2023-04-25T18:58:36.605Z,6.30
2023-04-25T18:59:07.105Z,5.56
2023-04-25T18:59:38.167Z,5.07
2023-04-25T19:00:08.619Z,5.68
2023-04-25T19:00:39.560Z,4.97
2023-04-25T19:01:10.593Z,5.18
2023-04-25T19:01:41.054Z,5.99
2023-04-25T19:02:42.911Z,5.33
2023-04-25T19:03:13.914Z,5.97
2023-04-25T19:03:44.680Z,5.29
2023-04-25T19:04:15.596Z,5.36
2023-04-25T19:04:45.990Z,5.56
2023-04-25T19:05:16.960Z,5.82
2023-04-25T19:05:47.474Z,5.32
2023-04-25T19:06:18.591Z,5.75
2023-04-25T19:06:49.110Z,5.97
2023-04-25T19:07:20.130Z,5.75
2023-04-25T19:07:50.507Z,5.48
2023-04-25T19:08:21.384Z,5.53
2023-04-25T19:08:52.658Z,5.98
2023-04-25T19:09:22.927Z,6.17
2023-04-25T19:09:53.855Z,5.59
2023-04-25T19:10:24.760Z,6.33
2023-04-25T19:10:55.830Z,5.86
2023-04-25T19:11:26.319Z,5.62
2023-04-25T19:11:56.776Z,5.66
2023-04-25T19:12:27.839Z,5.68
2023-04-25T19:12:58.327Z,5.66
2023-04-25T19:13:29.276Z,5.14
2023-04-25T19:14:00.192Z,4.49
2023-04-25T19:14:31.049Z,5.47
2023-04-25T19:15:01.947Z,6.01
2023-04-25T19:15:32.822Z,6.26
2023-04-25T19:16:03.703Z,4.92
2023-04-25T19:16:34.624Z,5.90
2023-04-25T19:17:05.639Z,5.11
2023-04-25T19:17:36.151Z,6.89
2023-04-25T19:18:06.968Z,5.15
2023-04-25T19:18:37.496Z,5.79
2023-04-25T19:19:08.432Z,6.01
2023-04-25T19:19:39.407Z,5.47
2023-04-25T19:20:10.350Z,5.89
2023-04-25T19:20:41.249Z,4.90
2023-04-25T19:21:12.162Z,5.53
2023-04-25T19:21:43.059Z,5.83
2023-04-25T19:22:13.948Z,6.49
2023-04-25T19:22:44.828Z,5.41
2023-04-25T19:23:15.851Z,5.41
2023-04-25T19:23:46.381Z,5.72
2023-04-25T19:24:16.856Z,6.11
2023-04-25T19:24:55.595Z,5.25
2023-04-25T19:25:21.368Z,6.16
2023-04-25T19:25:49.401Z,6.16
2023-04-25T19:26:19.833Z,5.76